createdAt,value
2023-05-19T00:04:07.726Z,15.94
2023-05-19T00:06:38.423Z,15.89
2023-05-19T00:09:09.746Z,15.87
2023-05-19T00:11:39.115Z,15.90
2023-05-19T00:14:07.867Z,15.88
2023-05-19T00:16:37.928Z,15.75
2023-05-19T00:19:06.490Z,15.63
2023-05-19T00:21:33.900Z,15.82
2023-05-19T00:24:02.272Z,15.80
2023-05-19T00:26:29.543Z,15.80
2023-05-19T00:28:56.573Z,15.73
2023-05-19T00:31:24.256Z,15.73
2023-05-19T00:33:52.109Z,15.76
2023-05-19T00:36:19.373Z,15.70
2023-05-19T00:38:46.491Z,15.72
2023-05-19T00:41:15.205Z,15.69
2023-05-19T00:43:42.301Z,15.69
2023-05-19T00:46:11.088Z,15.69
2023-05-19T00:48:39.455Z,15.45
2023-05-19T00:51:07.107Z,15.72
2023-05-19T00:53:35.467Z,15.45
2023-05-19T00:56:03.744Z,15.62
2023-05-19T00:58:33.667Z,15.62
2023-05-19T01:01:05.315Z,15.62
2023-05-19T01:03:35.213Z,15.60
2023-05-19T01:06:07.242Z,15.63
2023-05-19T01:08:37.735Z,15.61
2023-05-19T01:11:06.807Z,15.54
2023-05-19T01:13:35.611Z,15.53
2023-05-19T01:16:07.615Z,15.55
2023-05-19T01:18:46.391Z,15.49
2023-05-19T01:21:44.498Z,15.54
2023-05-19T01:24:33.448Z,15.59
2023-05-19T01:27:31.484Z,15.35
2023-05-19T01:30:25.883Z,15.34
2023-05-19T01:32:57.296Z,15.43
2023-05-19T01:35:26.242Z,15.47
2023-05-19T01:37:56.478Z,15.49
2023-05-19T01:40:25.310Z,15.47
2023-05-19T01:42:56.629Z,15.49
2023-05-19T01:45:26.427Z,15.43
2023-05-19T01:47:56.944Z,15.38
2023-05-19T01:50:23.977Z,15.33
2023-05-19T01:52:52.099Z,15.26
2023-05-19T01:55:19.312Z,15.30
2023-05-19T01:58:00.158Z,15.22
2023-05-19T02:00:37.736Z,15.20
2023-05-19T02:03:17.533Z,15.19
2023-05-19T02:05:52.476Z,15.15
2023-05-19T02:08:27.155Z,14.96
2023-05-19T02:11:00.695Z,15.06
2023-05-19T02:13:36.546Z,14.98
2023-05-19T02:16:06.480Z,15.08
2023-05-19T02:18:35.382Z,14.95
2023-05-19T02:21:02.814Z,15.10
2023-05-19T02:23:31.144Z,15.02
2023-05-19T02:25:58.277Z,14.93
2023-05-19T02:28:28.373Z,15.02
2023-05-19T02:30:55.486Z,14.99
2023-05-19T02:33:26.152Z,14.89
2023-05-19T02:35:53.476Z,14.86
2023-05-19T02:38:21.431Z,14.92
2023-05-19T02:40:48.784Z,15.09
2023-05-19T02:43:16.132Z,15.06
2023-05-19T02:45:43.115Z,14.98
2023-05-19T02:48:10.762Z,14.80
2023-05-19T02:50:39.621Z,14.89
2023-05-19T02:53:06.949Z,14.84
2023-05-19T02:55:33.877Z,14.84
2023-05-19T02:58:01.593Z,14.87
2023-05-19T03:00:28.642Z,14.85
2023-05-19T03:02:55.972Z,14.77
2023-05-19T03:05:23.065Z,14.66
2023-05-19T03:07:51.916Z,14.71
2023-05-19T03:10:18.982Z,14.64
2023-05-19T03:12:47.060Z,14.72
2023-05-19T03:15:15.132Z,14.76
2023-05-19T03:17:42.798Z,14.53
2023-05-19T03:20:11.023Z,14.76
2023-05-19T03:22:38.332Z,14.76
2023-05-19T03:25:07.552Z,14.74
2023-05-19T03:27:34.769Z,14.69
2023-05-19T03:30:02.704Z,14.63
2023-05-19T03:32:32.937Z,14.56
2023-05-19T03:34:59.862Z,14.57
2023-05-19T03:37:27.020Z,14.60
2023-05-19T03:39:54.382Z,14.46
2023-05-19T03:42:23.072Z,14.59
2023-05-19T03:44:50.058Z,14.55
2023-05-19T03:47:17.411Z,14.56
2023-05-19T03:49:44.402Z,14.56
2023-05-19T03:52:13.009Z,14.54
2023-05-19T03:54:42.180Z,14.57
2023-05-19T03:57:10.202Z,14.58
2023-05-19T03:59:38.627Z,14.60
2023-05-19T04:02:06.034Z,14.62
2023-05-19T04:04:33.675Z,14.61
2023-05-19T04:07:01.307Z,14.63
2023-05-19T04:09:28.598Z,14.65
2023-05-19T04:11:55.931Z,14.30
2023-05-19T04:14:23.643Z,14.73
2023-05-19T04:16:53.772Z,14.75
2023-05-19T04:19:20.805Z,14.76
2023-05-19T04:21:47.989Z,14.88
2023-05-19T04:24:15.330Z,14.82
2023-05-19T04:26:46.020Z,15.07
2023-05-19T04:29:13.966Z,15.20
2023-05-19T04:31:42.074Z,15.38
2023-05-19T04:34:10.526Z,15.45
2023-05-19T04:36:38.548Z,15.50
2023-05-19T04:39:09.389Z,15.63
2023-05-19T04:41:40.195Z,15.60
2023-05-19T04:44:09.068Z,15.18
2023-05-19T04:46:36.556Z,15.36
2023-05-19T04:49:03.744Z,15.45
2023-05-19T04:51:32.495Z,15.26
2023-05-19T04:53:59.492Z,15.35
2023-05-19T04:56:27.409Z,15.32
2023-05-19T04:58:54.470Z,15.50
2023-05-19T05:01:26.442Z,15.33
2023-05-19T05:03:59.215Z,15.08
2023-05-19T05:06:28.730Z,15.42
2023-05-19T05:08:57.710Z,15.06
2023-05-19T05:11:25.798Z,15.30
2023-05-19T05:13:53.726Z,15.19
2023-05-19T05:16:21.546Z,15.26
2023-05-19T05:18:49.174Z,15.21
2023-05-19T05:21:17.017Z,15.11
2023-05-19T05:23:44.590Z,15.13
2023-05-19T05:26:19.012Z,15.20
2023-05-19T05:28:46.037Z,15.07
2023-05-19T05:31:13.675Z,15.09
2023-05-19T05:33:41.526Z,15.10
2023-05-19T05:36:09.944Z,15.00
2023-05-19T05:38:37.071Z,15.04
2023-05-19T05:41:04.703Z,15.11
2023-05-19T05:43:34.947Z,15.19
2023-05-19T05:46:03.678Z,15.29
2023-05-19T05:48:31.274Z,15.41
2023-05-19T05:51:00.025Z,15.40
2023-05-19T05:53:30.993Z,15.59
2023-05-19T05:55:58.770Z,15.51
2023-05-19T05:58:25.915Z,15.59
2023-05-19T06:00:57.667Z,15.54
2023-05-19T06:03:25.025Z,15.52
2023-05-19T06:08:34.265Z,15.31
2023-05-19T06:11:01.734Z,14.99
2023-05-19T06:13:28.999Z,15.09
2023-05-19T06:15:58.798Z,15.17
2023-05-19T06:18:27.911Z,15.06
2023-05-19T06:20:55.316Z,15.31
2023-05-19T06:23:22.772Z,15.25
2023-05-19T06:25:50.018Z,15.36
2023-05-19T06:28:17.068Z,15.35
2023-05-19T06:30:44.471Z,15.20
2023-05-19T06:33:13.429Z,14.94
2023-05-19T06:35:41.049Z,14.22
2023-05-19T06:38:08.082Z,13.45
2023-05-19T06:40:37.030Z,13.17
2023-05-19T06:43:04.965Z,12.94
2023-05-19T06:45:32.373Z,13.20
2023-05-19T06:48:00.685Z,13.18
2023-05-19T06:50:29.557Z,13.53
2023-05-19T06:52:57.342Z,12.92
2023-05-19T06:55:25.208Z,13.19
2023-05-19T06:57:52.246Z,13.74
2023-05-19T07:00:31.123Z,13.14
2023-05-19T07:02:58.572Z,13.61
2023-05-19T07:05:26.286Z,13.79
2023-05-19T07:07:55.131Z,13.74
2023-05-19T07:10:22.625Z,13.89
2023-05-19T07:12:49.830Z,14.31
2023-05-19T07:15:17.194Z,14.98
2023-05-19T07:17:44.361Z,14.89
2023-05-19T07:20:12.631Z,15.36
2023-05-19T07:22:40.228Z,15.62
2023-05-19T07:25:09.948Z,15.67
2023-05-19T07:27:37.498Z,15.58
2023-05-19T07:30:05.490Z,15.38
2023-05-19T07:32:32.673Z,15.65
2023-05-19T07:35:00.088Z,16.01
2023-05-19T07:37:27.486Z,16.44
2023-05-19T07:39:54.668Z,16.13
2023-05-19T07:42:23.147Z,16.07
2023-05-19T07:44:50.636Z,16.07
2023-05-19T07:47:19.097Z,16.16
2023-05-19T07:49:48.605Z,16.10
2023-05-19T07:52:18.262Z,16.30
2023-05-19T07:54:45.702Z,16.58
2023-05-19T07:57:12.861Z,16.59
2023-05-19T07:59:41.768Z,16.57
2023-05-19T08:02:08.971Z,16.24
2023-05-19T08:04:36.779Z,16.34
2023-05-19T08:07:04.221Z,16.62
2023-05-19T08:09:31.699Z,16.73
2023-05-19T08:12:01.517Z,16.52
2023-05-19T08:14:28.831Z,16.51
2023-05-19T08:16:57.183Z,16.53
2023-05-19T08:19:24.569Z,16.45
2023-05-19T08:21:51.601Z,16.81
2023-05-19T08:24:19.730Z,16.87
2023-05-19T08:26:46.794Z,16.79
2023-05-19T08:29:14.200Z,16.66
2023-05-19T08:31:41.487Z,16.71
2023-05-19T08:34:10.605Z,16.82
2023-05-19T08:36:37.964Z,17.14
2023-05-19T08:39:06.783Z,17.29
2023-05-19T08:41:34.148Z,16.98
2023-05-19T08:44:01.822Z,17.23
2023-05-19T08:46:29.525Z,17.79
2023-05-19T08:49:02.064Z,17.59
2023-05-19T08:51:39.153Z,17.72
2023-05-19T08:54:14.684Z,17.86
2023-05-19T08:56:43.583Z,17.81
2023-05-19T08:59:12.054Z,18.23
2023-05-19T09:01:39.934Z,17.90
2023-05-19T09:04:07.737Z,17.89
2023-05-19T09:06:36.248Z,17.87
2023-05-19T09:09:04.039Z,18.39
2023-05-19T09:11:31.020Z,18.06
2023-05-19T09:13:58.584Z,17.97
2023-05-19T09:16:27.863Z,18.61
2023-05-19T09:18:58.596Z,18.70
2023-05-19T09:21:32.078Z,18.35
2023-05-19T09:24:05.141Z,18.19
2023-05-19T09:26:37.660Z,18.36
2023-05-19T09:29:11.425Z,18.73
2023-05-19T09:31:38.470Z,18.78
2023-05-19T09:34:12.996Z,18.48
2023-05-19T09:36:41.557Z,18.94
2023-05-19T09:39:16.536Z,18.99
2023-05-19T09:41:44.163Z,18.93
2023-05-19T09:44:21.707Z,19.13
2023-05-19T09:46:49.561Z,19.05
2023-05-19T09:49:21.861Z,19.16
2023-05-19T09:51:54.711Z,19.57
2023-05-19T09:54:24.537Z,20.16
2023-05-19T09:56:56.702Z,20.12
2023-05-19T09:59:25.344Z,19.81
2023-05-19T10:01:55.385Z,19.54
2023-05-19T10:04:23.467Z,19.74
2023-05-19T10:06:54.246Z,19.68
2023-05-19T10:09:25.685Z,19.50
2023-05-19T10:11:53.830Z,19.60
2023-05-19T10:14:24.581Z,19.62
2023-05-19T10:16:52.770Z,20.22
2023-05-19T10:19:22.589Z,20.20
2023-05-19T10:21:50.710Z,20.17
2023-05-19T10:24:18.965Z,20.20
2023-05-19T10:26:51.557Z,20.18
2023-05-19T10:29:23.244Z,20.41
2023-05-19T10:31:53.339Z,20.54
2023-05-19T10:34:43.837Z,20.54
2023-05-19T10:37:17.137Z,20.72
2023-05-19T10:39:45.016Z,20.53
2023-05-19T10:42:16.992Z,20.55
2023-05-19T10:44:58.451Z,20.87
2023-05-19T10:47:26.309Z,21.00
2023-05-19T10:49:54.238Z,20.72
2023-05-19T10:52:22.906Z,20.90
2023-05-19T10:54:51.438Z,20.62
2023-05-19T10:57:20.938Z,20.88
2023-05-19T10:59:49.610Z,21.01
2023-05-19T11:02:41.213Z,21.17
2023-05-19T11:05:09.841Z,21.57
2023-05-19T11:07:37.073Z,20.94
2023-05-19T11:10:07.849Z,21.25
2023-05-19T11:12:45.587Z,21.22
2023-05-19T11:15:14.503Z,21.63
2023-05-19T11:17:46.307Z,21.15
2023-05-19T11:20:22.533Z,21.17
2023-05-19T11:23:04.550Z,21.02
2023-05-19T11:25:46.766Z,21.59
2023-05-19T11:28:25.696Z,21.16
2023-05-19T11:30:54.989Z,21.52
2023-05-19T11:33:27.187Z,21.75
2023-05-19T11:35:57.920Z,21.68
2023-05-19T11:38:26.234Z,21.71
2023-05-19T11:40:53.908Z,21.62
2023-05-19T11:43:24.717Z,21.94
2023-05-19T11:45:51.886Z,21.94
2023-05-19T11:48:21.496Z,21.51
2023-05-19T11:50:48.647Z,21.66
2023-05-19T11:53:19.962Z,21.97
2023-05-19T11:55:48.569Z,21.91
2023-05-19T11:58:16.834Z,21.77
2023-05-19T12:00:47.538Z,21.60
2023-05-19T12:03:15.632Z,21.31
2023-05-19T12:05:46.046Z,22.03
2023-05-19T12:08:14.599Z,22.03
2023-05-19T12:10:42.032Z,22.37
2023-05-19T12:13:10.505Z,22.63
2023-05-19T12:15:38.106Z,22.75
2023-05-19T12:18:07.289Z,22.53
2023-05-19T12:20:38.045Z,22.37
2023-05-19T12:23:05.897Z,22.42
2023-05-19T12:25:33.369Z,22.83
2023-05-19T12:28:05.077Z,22.53
2023-05-19T12:30:33.785Z,22.86
2023-05-19T12:33:03.418Z,22.85
2023-05-19T12:35:36.318Z,22.91
2023-05-19T12:38:04.792Z,22.91
2023-05-19T12:40:33.952Z,22.92
2023-05-19T12:43:01.677Z,22.92
2023-05-19T12:45:29.018Z,22.92
2023-05-19T12:47:56.698Z,23.57
2023-05-19T12:50:30.564Z,23.65
2023-05-19T12:53:00.014Z,23.45
2023-05-19T12:55:27.319Z,23.66
2023-05-19T12:57:57.160Z,23.32
2023-05-19T13:00:32.727Z,22.88
2023-05-19T13:03:02.807Z,22.31
2023-05-19T13:05:31.502Z,22.09
2023-05-19T13:08:05.287Z,22.17
2023-05-19T13:10:34.073Z,21.52
2023-05-19T13:13:02.524Z,21.75
2023-05-19T13:15:34.394Z,21.93
2023-05-19T13:18:06.326Z,21.71
2023-05-19T13:20:34.521Z,21.73
2023-05-19T13:23:03.724Z,22.21
2023-05-19T13:25:31.052Z,22.26
2023-05-19T13:28:01.231Z,21.73
2023-05-19T13:30:28.508Z,22.88
2023-05-19T13:32:55.921Z,23.23
2023-05-19T13:35:23.234Z,23.03
2023-05-19T13:37:50.977Z,23.18
2023-05-19T13:40:20.385Z,23.20
2023-05-19T13:42:48.211Z,22.99
2023-05-19T13:45:15.702Z,22.68
2023-05-19T13:47:43.171Z,23.04
2023-05-19T13:50:11.038Z,22.95
2023-05-19T13:52:38.416Z,22.93
2023-05-19T13:55:07.052Z,22.26
2023-05-19T13:57:35.769Z,21.64
2023-05-19T14:00:04.596Z,21.41
2023-05-19T14:02:33.846Z,21.40
2023-05-19T14:05:01.028Z,21.80
2023-05-19T14:07:28.401Z,21.49
2023-05-19T14:09:55.514Z,21.51
2023-05-19T14:12:27.973Z,21.89
2023-05-19T14:15:03.426Z,21.99
2023-05-19T14:17:31.864Z,21.86
2023-05-19T14:20:00.671Z,22.05
2023-05-19T14:22:28.299Z,21.69
2023-05-19T14:24:55.514Z,21.64
2023-05-19T14:27:22.923Z,21.70
2023-05-19T14:29:50.353Z,21.50
2023-05-19T14:32:19.739Z,22.03
2023-05-19T14:34:47.542Z,21.89
2023-05-19T14:37:14.793Z,21.88
2023-05-19T14:39:41.858Z,22.28
2023-05-19T14:42:09.164Z,22.21
2023-05-19T14:44:37.629Z,21.54
2023-05-19T14:47:07.538Z,21.56
2023-05-19T14:49:38.612Z,21.95
2023-05-19T14:52:07.301Z,21.68
2023-05-19T14:54:34.569Z,21.98
2023-05-19T14:57:03.035Z,21.48
2023-05-19T14:59:30.347Z,21.74
2023-05-19T15:01:57.764Z,21.74
2023-05-19T15:04:25.152Z,21.39
2023-05-19T15:07:05.682Z,21.88
2023-05-19T15:09:37.742Z,21.94
2023-05-19T15:12:05.550Z,22.03
2023-05-19T15:14:32.643Z,22.11
2023-05-19T15:17:00.294Z,21.66
2023-05-19T15:19:27.558Z,21.90
2023-05-19T15:21:56.498Z,21.31
2023-05-19T15:24:25.142Z,21.25
2023-05-19T15:26:52.577Z,21.51
2023-05-19T15:29:19.714Z,21.22
2023-05-19T15:31:50.229Z,21.44
2023-05-19T15:34:18.336Z,21.27
2023-05-19T15:36:45.802Z,21.27
2023-05-19T15:39:14.605Z,21.02
2023-05-19T15:41:41.949Z,21.48
2023-05-19T15:44:09.224Z,21.54
2023-05-19T15:46:36.735Z,21.32
2023-05-19T15:49:04.296Z,21.76
2023-05-19T15:51:32.263Z,21.74
2023-05-19T15:53:59.666Z,21.62
2023-05-19T15:56:28.364Z,21.54
2023-05-19T15:58:55.329Z,21.49
2023-05-19T16:01:22.882Z,21.51
2023-05-19T16:03:50.428Z,21.58
2023-05-19T16:06:17.983Z,21.13
2023-05-19T16:08:45.210Z,21.67
2023-05-19T16:11:12.557Z,21.56
2023-05-19T16:13:41.537Z,21.74
2023-05-19T16:16:09.601Z,21.36
2023-05-19T16:18:36.842Z,21.62
2023-05-19T16:21:04.586Z,21.02
2023-05-19T16:23:31.864Z,20.98
2023-05-19T16:26:00.416Z,21.10
2023-05-19T16:28:28.830Z,21.01
2023-05-19T16:30:59.687Z,20.95
2023-05-19T16:33:27.280Z,20.91
2023-05-19T16:35:54.772Z,20.36
2023-05-19T16:38:21.838Z,20.69
2023-05-19T16:40:49.204Z,20.54
2023-05-19T16:43:16.279Z,20.06
2023-05-19T16:45:43.589Z,20.30
2023-05-19T16:48:12.269Z,20.16
2023-05-19T16:50:39.937Z,19.73
2023-05-19T16:53:07.200Z,19.62
2023-05-19T16:55:34.720Z,19.91
2023-05-19T16:58:01.731Z,19.45
2023-05-19T17:00:29.858Z,19.26
2023-05-19T17:02:57.020Z,19.18
2023-05-19T17:05:27.296Z,19.02
2023-05-19T17:07:54.453Z,19.39
2023-05-19T17:10:22.142Z,19.36
2023-05-19T17:12:49.304Z,18.89
2023-05-19T17:15:16.809Z,18.84
2023-05-19T17:17:43.827Z,19.16
2023-05-19T17:20:13.331Z,18.89
2023-05-19T17:22:41.859Z,18.99
2023-05-19T17:25:09.652Z,18.87
2023-05-19T17:27:36.889Z,18.39
2023-05-19T17:30:04.876Z,18.76
2023-05-19T17:32:35.935Z,18.77
2023-05-19T17:35:05.405Z,18.62
2023-05-19T17:37:33.252Z,18.80
2023-05-19T17:40:02.089Z,18.65
2023-05-19T17:42:31.716Z,18.72
2023-05-19T17:44:59.475Z,18.78
2023-05-19T17:47:26.565Z,18.46
2023-05-19T17:49:54.105Z,18.50
2023-05-19T17:52:21.819Z,18.49
2023-05-19T17:54:50.593Z,18.53
2023-05-19T17:57:20.226Z,18.61
2023-05-19T17:59:48.175Z,18.46
2023-05-19T18:02:15.991Z,18.84
2023-05-19T18:04:43.797Z,18.82
2023-05-19T18:07:12.009Z,18.81
2023-05-19T18:12:43.470Z,18.28
2023-05-19T18:15:11.908Z,18.14
2023-05-19T18:17:38.968Z,18.10
2023-05-19T18:20:07.938Z,18.43
2023-05-19T18:22:34.920Z,18.38
2023-05-19T18:25:02.324Z,17.99
2023-05-19T18:27:29.879Z,18.31
2023-05-19T18:29:58.818Z,18.12
2023-05-19T18:32:25.708Z,18.33
2023-05-19T18:34:53.065Z,18.01
2023-05-19T18:37:21.789Z,18.09
2023-05-19T18:39:49.235Z,18.32
2023-05-19T18:42:16.694Z,18.11
2023-05-19T18:44:47.596Z,18.42
2023-05-19T18:47:16.455Z,18.48
2023-05-19T18:49:43.737Z,18.50
2023-05-19T18:52:11.212Z,18.51
2023-05-19T18:54:38.876Z,18.08
2023-05-19T18:57:06.641Z,18.52
2023-05-19T18:59:34.009Z,18.05
2023-05-19T19:02:01.273Z,18.11
2023-05-19T19:04:31.485Z,18.00
2023-05-19T19:06:58.948Z,17.98
2023-05-19T19:09:26.366Z,18.28
2023-05-19T19:11:53.459Z,18.28
2023-05-19T19:14:24.132Z,18.32
2023-05-19T19:16:51.231Z,17.92
2023-05-19T19:19:18.689Z,18.00
2023-05-19T19:21:47.318Z,17.73
2023-05-19T19:24:14.674Z,18.48
2023-05-19T19:26:41.961Z,18.47
2023-05-19T19:29:09.681Z,18.52
2023-05-19T19:31:36.785Z,18.18
2023-05-19T19:34:09.167Z,18.00
2023-05-19T19:36:36.408Z,17.97
2023-05-19T19:39:05.240Z,18.47
2023-05-19T19:41:33.452Z,17.71
2023-05-19T19:44:00.801Z,18.45
2023-05-19T19:46:27.946Z,18.43
2023-05-19T19:48:57.242Z,17.98
2023-05-19T19:51:24.693Z,17.98
2023-05-19T19:53:51.995Z,17.74
2023-05-19T19:56:22.193Z,17.96
2023-05-19T19:58:49.534Z,17.75
2023-05-19T20:01:16.695Z,18.13
2023-05-19T20:04:19.923Z,18.12
2023-05-19T20:06:47.384Z,17.69
2023-05-19T20:09:14.773Z,17.63
2023-05-19T20:11:43.603Z,17.58
2023-05-19T20:14:11.135Z,17.56
2023-05-19T20:16:40.400Z,17.58
2023-05-19T20:19:09.354Z,17.99
2023-05-19T20:21:36.729Z,17.45
2023-05-19T20:24:04.484Z,17.53
2023-05-19T20:26:31.656Z,17.63
2023-05-19T20:29:00.441Z,17.54
2023-05-19T20:31:27.524Z,17.86
2023-05-19T20:33:54.995Z,17.86
2023-05-19T20:36:22.163Z,17.74
2023-05-19T20:38:49.527Z,17.84
2023-05-19T20:41:16.635Z,17.70
2023-05-19T20:43:44.284Z,18.02
2023-05-19T20:46:12.911Z,18.03
2023-05-19T20:48:40.623Z,17.99
2023-05-19T20:51:07.752Z,17.95
2023-05-19T20:53:36.480Z,17.76
2023-05-19T20:56:05.276Z,17.89
2023-05-19T20:58:32.697Z,17.12
2023-05-19T21:00:59.726Z,17.92
2023-05-19T21:03:28.784Z,17.10
2023-05-19T21:05:55.740Z,17.84
2023-05-19T21:08:23.511Z,17.37
2023-05-19T21:10:51.032Z,17.64
2023-05-19T21:13:18.682Z,17.23
2023-05-19T21:15:46.164Z,17.38
2023-05-19T21:18:13.568Z,17.54
2023-05-19T21:20:42.078Z,17.67
2023-05-19T21:23:09.404Z,17.66
2023-05-19T21:25:36.446Z,17.34
2023-05-19T21:28:03.949Z,17.69
2023-05-19T21:30:31.341Z,17.31
2023-05-19T21:32:58.850Z,17.26
2023-05-19T21:35:26.427Z,17.26
2023-05-19T21:37:55.764Z,17.70
2023-05-19T21:40:22.871Z,17.37
2023-05-19T21:42:50.288Z,17.24
2023-05-19T21:45:17.569Z,17.67
2023-05-19T21:47:45.126Z,17.31
2023-05-19T21:50:15.729Z,17.60
2023-05-19T21:52:43.268Z,17.20
2023-05-19T21:55:11.891Z,16.99
2023-05-19T21:57:39.299Z,17.11
2023-05-19T22:00:08.213Z,17.56
2023-05-19T22:02:35.843Z,17.49
2023-05-19T22:05:03.148Z,17.06
2023-05-19T22:07:30.419Z,17.20
2023-05-19T22:09:57.574Z,16.90
2023-05-19T22:12:26.493Z,17.29
2023-05-19T22:14:53.520Z,17.06
2023-05-19T22:17:21.226Z,16.74
2023-05-19T22:19:48.297Z,16.53
2023-05-19T22:22:15.878Z,16.79
2023-05-19T22:24:43.100Z,16.70
2023-05-19T22:27:10.581Z,17.05
2023-05-19T22:29:39.119Z,16.63
2023-05-19T22:32:07.674Z,16.95
2023-05-19T22:34:35.009Z,16.92
2023-05-19T22:37:02.532Z,16.44
2023-05-19T22:39:29.522Z,16.83
2023-05-19T22:41:56.818Z,16.32
2023-05-19T22:44:23.993Z,16.29
2023-05-19T22:46:52.790Z,16.36
2023-05-19T22:49:20.980Z,16.78
2023-05-19T22:51:48.455Z,16.29
2023-05-19T22:54:15.741Z,16.43
2023-05-19T22:56:46.371Z,16.55
2023-05-19T22:59:13.814Z,16.04
2023-05-19T23:01:41.207Z,15.95
2023-05-19T23:04:11.527Z,15.90
2023-05-19T23:06:38.826Z,16.11
2023-05-19T23:09:05.923Z,15.93
2023-05-19T23:11:33.185Z,16.33
2023-05-19T23:14:00.635Z,15.83
2023-05-19T23:16:28.048Z,16.03
2023-05-19T23:18:55.609Z,15.80
2023-05-19T23:21:24.538Z,16.21
2023-05-19T23:23:51.972Z,15.53
2023-05-19T23:26:19.254Z,16.07
2023-05-19T23:28:46.239Z,15.59
2023-05-19T23:31:13.714Z,15.55
2023-05-19T23:33:46.142Z,15.95
2023-05-19T23:36:13.756Z,15.85
2023-05-19T23:38:42.200Z,15.75
2023-05-19T23:41:09.621Z,15.19
2023-05-19T23:43:37.820Z,15.13
2023-05-19T23:46:05.228Z,15.55
2023-05-19T23:48:33.643Z,15.04
2023-05-19T23:51:01.231Z,14.72
2023-05-19T23:53:28.450Z,15.46
2023-05-19T23:55:58.713Z,15.06
2023-05-19T23:58:26.057Z,15.48
